sensor_id;sensor_type;location;lat;lon;timestamp;P1;durP1;ratioP1;P2;durP2;ratioP2
37971;SDS011;23794;48.234;8.344;2023-03-24T00:00:21;2.78;;;1.75;;
37971;SDS011;23794;48.234;8.344;2023-03-24T00:02:50;2.80;;;1.67;;
37971;SDS011;23794;48.234;8.344;2023-03-24T00:05:18;4.20;;;1.80;;
37971;SDS011;23794;48.234;8.344;2023-03-24T00:07:47;2.75;;;2.15;;
37971;SDS011;23794;48.234;8.344;2023-03-24T00:10:20;3.35;;;1.77;;
37971;SDS011;23794;48.234;8.344;2023-03-24T00:12:48;3.83;;;1.50;;
37971;SDS011;23794;48.234;8.344;2023-03-24T00:15:17;2.53;;;1.08;;
37971;SDS011;23794;48.234;8.344;2023-03-24T00:17:47;2.10;;;1.10;;
37971;SDS011;23794;48.234;8.344;2023-03-24T00:20:18;2.80;;;1.50;;
37971;SDS011;23794;48.234;8.344;2023-03-24T00:22:48;2.72;;;1.67;;
37971;SDS011;23794;48.234;8.344;2023-03-24T00:25:23;3.08;;;1.33;;
37971;SDS011;23794;48.234;8.344;2023-03-24T00:27:59;4.00;;;1.80;;
37971;SDS011;23794;48.234;8.344;2023-03-24T00:30:26;2.30;;;1.60;;
37971;SDS011;23794;48.234;8.344;2023-03-24T00:32:54;3.40;;;1.70;;
37971;SDS011;23794;48.234;8.344;2023-03-24T00:35:22;2.05;;;1.30;;
37971;SDS011;23794;48.234;8.344;2023-03-24T00:37:49;2.38;;;1.13;;
37971;SDS011;23794;48.234;8.344;2023-03-24T00:40:18;2.45;;;1.40;;
37971;SDS011;23794;48.234;8.344;2023-03-24T00:42:47;2.25;;;1.42;;
37971;SDS011;23794;48.234;8.344;2023-03-24T00:45:15;2.03;;;1.30;;
37971;SDS011;23794;48.234;8.344;2023-03-24T00:47:47;1.88;;;1.20;;
37971;SDS011;23794;48.234;8.344;2023-03-24T00:50:16;1.65;;;1.10;;
37971;SDS011;23794;48.234;8.344;2023-03-24T00:52:46;3.95;;;1.30;;
37971;SDS011;23794;48.234;8.344;2023-03-24T00:55:14;2.45;;;1.30;;
37971;SDS011;23794;48.234;8.344;2023-03-24T00:57:44;3.30;;;1.30;;
37971;SDS011;23794;48.234;8.344;2023-03-24T01:00:18;2.72;;;1.50;;
37971;SDS011;23794;48.234;8.344;2023-03-24T01:02:54;1.40;;;1.00;;
37971;SDS011;23794;48.234;8.344;2023-03-24T01:05:26;2.00;;;1.02;;
37971;SDS011;23794;48.234;8.344;2023-03-24T01:07:55;2.30;;;1.00;;
37971;SDS011;23794;48.234;8.344;2023-03-24T01:10:24;2.03;;;1.08;;
37971;SDS011;23794;48.234;8.344;2023-03-24T01:12:54;2.25;;;1.20;;
37971;SDS011;23794;48.234;8.344;2023-03-24T01:15:23;1.60;;;1.15;;
37971;SDS011;23794;48.234;8.344;2023-03-24T01:17:53;1.80;;;0.82;;
37971;SDS011;23794;48.234;8.344;2023-03-24T01:20:22;3.25;;;1.20;;
37971;SDS011;23794;48.234;8.344;2023-03-24T01:22:49;4.45;;;1.05;;
37971;SDS011;23794;48.234;8.344;2023-03-24T01:25:17;2.13;;;1.10;;
37971;SDS011;23794;48.234;8.344;2023-03-24T01:27:49;2.15;;;1.20;;
37971;SDS011;23794;48.234;8.344;2023-03-24T01:30:19;2.70;;;1.38;;
37971;SDS011;23794;48.234;8.344;2023-03-24T01:32:48;1.27;;;1.08;;
37971;SDS011;23794;48.234;8.344;2023-03-24T01:35:16;2.28;;;1.13;;
37971;SDS011;23794;48.234;8.344;2023-03-24T01:37:44;1.90;;;1.33;;
37971;SDS011;23794;48.234;8.344;2023-03-24T01:40:15;1.35;;;1.10;;
37971;SDS011;23794;48.234;8.344;2023-03-24T01:42:47;2.13;;;1.10;;
37971;SDS011;23794;48.234;8.344;2023-03-24T01:48:07;3.80;;;2.05;;
37971;SDS011;23794;48.234;8.344;2023-03-24T01:53:05;1.60;;;1.17;;
37971;SDS011;23794;48.234;8.344;2023-03-24T01:55:34;4.43;;;2.22;;
37971;SDS011;23794;48.234;8.344;2023-03-24T01:58:02;2.30;;;1.50;;
37971;SDS011;23794;48.234;8.344;2023-03-24T02:00:47;2.50;;;1.73;;
37971;SDS011;23794;48.234;8.344;2023-03-24T02:03:35;2.60;;;1.70;;
37971;SDS011;23794;48.234;8.344;2023-03-24T02:06:06;3.38;;;1.80;;
37971;SDS011;23794;48.234;8.344;2023-03-24T02:11:12;4.07;;;1.42;;
37971;SDS011;23794;48.234;8.344;2023-03-24T02:13:47;1.92;;;1.40;;
37971;SDS011;23794;48.234;8.344;2023-03-24T02:19:23;2.45;;;1.40;;
37971;SDS011;23794;48.234;8.344;2023-03-24T02:51:39;1.73;;;1.00;;
37971;SDS011;23794;48.234;8.344;2023-03-24T03:00:14;1.50;;;1.20;;
37971;SDS011;23794;48.234;8.344;2023-03-24T03:03:08;2.97;;;1.08;;
37971;SDS011;23794;48.234;8.344;2023-03-24T03:05:52;5.03;;;1.35;;
37971;SDS011;23794;48.234;8.344;2023-03-24T03:08:25;1.50;;;1.00;;
37971;SDS011;23794;48.234;8.344;2023-03-24T03:10:57;1.15;;;0.80;;
37971;SDS011;23794;48.234;8.344;2023-03-24T03:13:37;1.23;;;0.80;;
37971;SDS011;23794;48.234;8.344;2023-03-24T03:16:17;1.50;;;1.00;;
37971;SDS011;23794;48.234;8.344;2023-03-24T03:18:49;1.80;;;1.10;;
37971;SDS011;23794;48.234;8.344;2023-03-24T03:21:22;1.85;;;1.08;;
37971;SDS011;23794;48.234;8.344;2023-03-24T03:23:59;3.28;;;1.33;;
37971;SDS011;23794;48.234;8.344;2023-03-24T03:26:31;1.70;;;0.90;;
37971;SDS011;23794;48.234;8.344;2023-03-24T03:29:00;3.13;;;1.27;;
37971;SDS011;23794;48.234;8.344;2023-03-24T03:31:33;1.30;;;1.00;;
37971;SDS011;23794;48.234;8.344;2023-03-24T03:34:12;6.60;;;1.63;;
37971;SDS011;23794;48.234;8.344;2023-03-24T03:36:51;3.92;;;1.08;;
37971;SDS011;23794;48.234;8.344;2023-03-24T03:39:23;1.52;;;1.10;;
37971;SDS011;23794;48.234;8.344;2023-03-24T03:41:58;1.40;;;0.90;;
37971;SDS011;23794;48.234;8.344;2023-03-24T03:44:25;1.90;;;1.02;;
37971;SDS011;23794;48.234;8.344;2023-03-24T03:46:52;1.95;;;1.00;;
37971;SDS011;23794;48.234;8.344;2023-03-24T03:49:29;1.50;;;0.95;;
37971;SDS011;23794;48.234;8.344;2023-03-24T03:51:57;1.60;;;0.88;;
37971;SDS011;23794;48.234;8.344;2023-03-24T03:54:24;1.60;;;0.98;;
37971;SDS011;23794;48.234;8.344;2023-03-24T03:56:56;2.17;;;1.00;;
37971;SDS011;23794;48.234;8.344;2023-03-24T03:59:30;2.65;;;1.23;;
37971;SDS011;23794;48.234;8.344;2023-03-24T04:02:11;2.83;;;1.63;;
37971;SDS011;23794;48.234;8.344;2023-03-24T04:05:03;2.50;;;1.38;;
37971;SDS011;23794;48.234;8.344;2023-03-24T04:19:22;2.92;;;1.42;;
37971;SDS011;23794;48.234;8.344;2023-03-24T04:22:12;3.67;;;1.10;;
37971;SDS011;23794;48.234;8.344;2023-03-24T04:27:46;1.80;;;1.00;;
37971;SDS011;23794;48.234;8.344;2023-03-24T04:30:22;2.50;;;1.60;;
37971;SDS011;23794;48.234;8.344;2023-03-24T04:33:02;3.38;;;2.15;;
37971;SDS011;23794;48.234;8.344;2023-03-24T04:35:49;3.22;;;1.65;;
37971;SDS011;23794;48.234;8.344;2023-03-24T04:38:34;1.63;;;1.17;;
37971;SDS011;23794;48.234;8.344;2023-03-24T04:41:27;2.83;;;1.30;;
37971;SDS011;23794;48.234;8.344;2023-03-24T04:44:06;2.40;;;1.65;;
37971;SDS011;23794;48.234;8.344;2023-03-24T04:46:50;3.67;;;2.17;;
37971;SDS011;23794;48.234;8.344;2023-03-24T04:49:22;2.47;;;1.60;;
37971;SDS011;23794;48.234;8.344;2023-03-24T04:51:52;3.65;;;1.98;;
37971;SDS011;23794;48.234;8.344;2023-03-24T04:54:23;5.13;;;2.30;;
37971;SDS011;23794;48.234;8.344;2023-03-24T04:56:57;3.30;;;2.15;;
37971;SDS011;23794;48.234;8.344;2023-03-24T04:59:39;2.70;;;1.77;;
37971;SDS011;23794;48.234;8.344;2023-03-24T05:02:06;3.95;;;2.33;;
37971;SDS011;23794;48.234;8.344;2023-03-24T05:04:38;4.05;;;2.20;;
37971;SDS011;23794;48.234;8.344;2023-03-24T05:07:18;3.90;;;2.30;;
37971;SDS011;23794;48.234;8.344;2023-03-24T05:09:49;3.38;;;2.05;;
37971;SDS011;23794;48.234;8.344;2023-03-24T05:12:16;2.90;;;2.03;;
37971;SDS011;23794;48.234;8.344;2023-03-24T05:15:02;4.57;;;2.28;;
37971;SDS011;23794;48.234;8.344;2023-03-24T05:17:30;4.53;;;1.90;;
37971;SDS011;23794;48.234;8.344;2023-03-24T05:19:57;2.40;;;1.80;;
37971;SDS011;23794;48.234;8.344;2023-03-24T05:22:26;3.30;;;2.00;;
37971;SDS011;23794;48.234;8.344;2023-03-24T05:24:57;3.80;;;2.17;;
37971;SDS011;23794;48.234;8.344;2023-03-24T05:27:26;3.58;;;2.30;;
37971;SDS011;23794;48.234;8.344;2023-03-24T05:29:58;3.38;;;2.38;;
37971;SDS011;23794;48.234;8.344;2023-03-24T05:32:31;4.68;;;1.77;;
37971;SDS011;23794;48.234;8.344;2023-03-24T05:34:58;3.85;;;2.50;;
37971;SDS011;23794;48.234;8.344;2023-03-24T05:37:30;4.57;;;2.85;;
37971;SDS011;23794;48.234;8.344;2023-03-24T05:39:57;2.42;;;2.03;;
37971;SDS011;23794;48.234;8.344;2023-03-24T05:42:43;3.17;;;2.30;;
37971;SDS011;23794;48.234;8.344;2023-03-24T05:45:16;3.80;;;2.50;;
37971;SDS011;23794;48.234;8.344;2023-03-24T05:48:05;3.10;;;2.15;;
37971;SDS011;23794;48.234;8.344;2023-03-24T05:51:11;2.88;;;2.05;;
37971;SDS011;23794;48.234;8.344;2023-03-24T05:53:39;4.20;;;2.75;;
37971;SDS011;23794;48.234;8.344;2023-03-24T05:56:15;3.80;;;2.95;;
37971;SDS011;23794;48.234;8.344;2023-03-24T05:59:01;3.67;;;3.22;;
37971;SDS011;23794;48.234;8.344;2023-03-24T06:01:47;3.85;;;2.53;;
37971;SDS011;23794;48.234;8.344;2023-03-24T06:04:21;5.88;;;2.95;;
37971;SDS011;23794;48.234;8.344;2023-03-24T06:06:51;4.20;;;3.78;;
37971;SDS011;23794;48.234;8.344;2023-03-24T06:09:27;4.93;;;3.78;;
37971;SDS011;23794;48.234;8.344;2023-03-24T06:11:55;3.72;;;2.80;;
37971;SDS011;23794;48.234;8.344;2023-03-24T06:14:23;6.40;;;4.55;;
37971;SDS011;23794;48.234;8.344;2023-03-24T06:17:01;3.97;;;2.92;;
37971;SDS011;23794;48.234;8.344;2023-03-24T06:19:28;3.83;;;2.72;;
37971;SDS011;23794;48.234;8.344;2023-03-24T06:22:16;5.10;;;2.78;;
37971;SDS011;23794;48.234;8.344;2023-03-24T06:24:44;7.43;;;4.05;;
37971;SDS011;23794;48.234;8.344;2023-03-24T06:27:13;6.95;;;3.25;;
37971;SDS011;23794;48.234;8.344;2023-03-24T06:29:40;4.93;;;3.30;;
37971;SDS011;23794;48.234;8.344;2023-03-24T06:32:12;4.28;;;3.40;;
37971;SDS011;23794;48.234;8.344;2023-03-24T06:34:40;4.78;;;3.78;;
37971;SDS011;23794;48.234;8.344;2023-03-24T06:37:15;4.75;;;3.25;;
37971;SDS011;23794;48.234;8.344;2023-03-24T06:39:42;5.00;;;3.88;;
37971;SDS011;23794;48.234;8.344;2023-03-24T06:42:11;4.68;;;3.33;;
37971;SDS011;23794;48.234;8.344;2023-03-24T06:44:38;4.95;;;2.78;;
37971;SDS011;23794;48.234;8.344;2023-03-24T06:47:05;4.38;;;3.15;;
37971;SDS011;23794;48.234;8.344;2023-03-24T06:49:32;4.07;;;2.95;;
37971;SDS011;23794;48.234;8.344;2023-03-24T06:52:00;4.22;;;3.00;;
37971;SDS011;23794;48.234;8.344;2023-03-24T06:54:28;4.05;;;3.05;;
37971;SDS011;23794;48.234;8.344;2023-03-24T06:56:56;5.65;;;2.95;;
37971;SDS011;23794;48.234;8.344;2023-03-24T06:59:27;3.95;;;2.70;;
37971;SDS011;23794;48.234;8.344;2023-03-24T07:01:53;4.13;;;3.10;;
37971;SDS011;23794;48.234;8.344;2023-03-24T07:04:23;4.93;;;3.22;;
37971;SDS011;23794;48.234;8.344;2023-03-24T07:06:53;3.78;;;2.42;;
37971;SDS011;23794;48.234;8.344;2023-03-24T07:09:42;3.38;;;2.33;;
37971;SDS011;23794;48.234;8.344;2023-03-24T07:12:09;3.17;;;2.40;;
37971;SDS011;23794;48.234;8.344;2023-03-24T07:14:40;3.05;;;2.05;;
37971;SDS011;23794;48.234;8.344;2023-03-24T07:17:07;6.22;;;2.08;;
37971;SDS011;23794;48.234;8.344;2023-03-24T07:19:49;3.75;;;2.70;;
37971;SDS011;23794;48.234;8.344;2023-03-24T07:22:41;3.38;;;1.80;;
37971;SDS011;23794;48.234;8.344;2023-03-24T07:25:34;3.40;;;2.20;;
37971;SDS011;23794;48.234;8.344;2023-03-24T07:28:21;3.33;;;2.10;;
37971;SDS011;23794;48.234;8.344;2023-03-24T07:30:48;2.03;;;1.63;;
37971;SDS011;23794;48.234;8.344;2023-03-24T07:33:18;2.78;;;2.30;;
37971;SDS011;23794;48.234;8.344;2023-03-24T07:35:45;2.88;;;1.80;;
37971;SDS011;23794;48.234;8.344;2023-03-24T07:38:12;3.67;;;2.22;;
37971;SDS011;23794;48.234;8.344;2023-03-24T07:40:39;5.13;;;2.15;;
37971;SDS011;23794;48.234;8.344;2023-03-24T07:43:06;3.45;;;1.60;;
37971;SDS011;23794;48.234;8.344;2023-03-24T07:45:54;2.30;;;1.83;;
37971;SDS011;23794;48.234;8.344;2023-03-24T07:48:21;2.58;;;1.55;;
37971;SDS011;23794;48.234;8.344;2023-03-24T07:50:51;2.95;;;1.73;;
37971;SDS011;23794;48.234;8.344;2023-03-24T07:53:40;3.25;;;1.85;;
37971;SDS011;23794;48.234;8.344;2023-03-24T07:56:07;2.83;;;1.60;;
37971;SDS011;23794;48.234;8.344;2023-03-24T07:58:39;3.65;;;1.90;;
37971;SDS011;23794;48.234;8.344;2023-03-24T08:01:16;2.42;;;1.33;;
37971;SDS011;23794;48.234;8.344;2023-03-24T08:03:46;2.90;;;1.30;;
37971;SDS011;23794;48.234;8.344;2023-03-24T08:06:16;1.88;;;1.23;;
37971;SDS011;23794;48.234;8.344;2023-03-24T08:08:49;2.80;;;1.02;;
37971;SDS011;23794;48.234;8.344;2023-03-24T08:11:15;1.63;;;0.95;;
37971;SDS011;23794;48.234;8.344;2023-03-24T08:13:42;1.52;;;0.80;;
37971;SDS011;23794;48.234;8.344;2023-03-24T08:16:09;1.65;;;1.10;;
37971;SDS011;23794;48.234;8.344;2023-03-24T08:18:36;1.30;;;1.00;;
37971;SDS011;23794;48.234;8.344;2023-03-24T08:21:03;2.20;;;0.90;;
37971;SDS011;23794;48.234;8.344;2023-03-24T08:23:31;2.40;;;1.17;;
37971;SDS011;23794;48.234;8.344;2023-03-24T08:25:58;1.77;;;1.10;;
37971;SDS011;23794;48.234;8.344;2023-03-24T08:28:25;1.45;;;1.00;;
37971;SDS011;23794;48.234;8.344;2023-03-24T08:30:51;1.88;;;1.33;;
37971;SDS011;23794;48.234;8.344;2023-03-24T08:33:18;1.85;;;1.10;;
37971;SDS011;23794;48.234;8.344;2023-03-24T08:35:45;2.17;;;1.10;;
37971;SDS011;23794;48.234;8.344;2023-03-24T08:38:13;1.48;;;1.05;;
37971;SDS011;23794;48.234;8.344;2023-03-24T08:40:45;1.77;;;1.27;;
37971;SDS011;23794;48.234;8.344;2023-03-24T08:43:14;1.73;;;1.15;;
37971;SDS011;23794;48.234;8.344;2023-03-24T08:45:43;1.38;;;1.10;;
37971;SDS011;23794;48.234;8.344;2023-03-24T08:48:10;1.27;;;0.90;;
37971;SDS011;23794;48.234;8.344;2023-03-24T08:50:38;2.00;;;1.10;;
37971;SDS011;23794;48.234;8.344;2023-03-24T08:53:08;2.05;;;1.08;;
37971;SDS011;23794;48.234;8.344;2023-03-24T08:55:36;2.08;;;1.10;;
37971;SDS011;23794;48.234;8.344;2023-03-24T08:58:07;3.60;;;1.52;;
37971;SDS011;23794;48.234;8.344;2023-03-24T09:00:54;1.33;;;1.10;;
37971;SDS011;23794;48.234;8.344;2023-03-24T09:03:20;2.22;;;1.20;;
37971;SDS011;23794;48.234;8.344;2023-03-24T09:05:48;1.20;;;1.00;;
37971;SDS011;23794;48.234;8.344;2023-03-24T09:08:16;1.65;;;1.08;;
37971;SDS011;23794;48.234;8.344;2023-03-24T09:10:44;1.75;;;1.00;;
37971;SDS011;23794;48.234;8.344;2023-03-24T09:13:15;1.63;;;1.15;;
37971;SDS011;23794;48.234;8.344;2023-03-24T09:15:49;1.42;;;1.08;;
37971;SDS011;23794;48.234;8.344;2023-03-24T09:18:18;1.15;;;0.88;;
37971;SDS011;23794;48.234;8.344;2023-03-24T09:20:47;1.08;;;0.77;;
37971;SDS011;23794;48.234;8.344;2023-03-24T09:23:15;2.17;;;1.33;;
37971;SDS011;23794;48.234;8.344;2023-03-24T09:25:42;1.05;;;0.80;;
37971;SDS011;23794;48.234;8.344;2023-03-24T09:28:09;1.55;;;0.80;;
37971;SDS011;23794;48.234;8.344;2023-03-24T09:30:35;2.55;;;1.20;;
37971;SDS011;23794;48.234;8.344;2023-03-24T09:33:02;1.60;;;1.00;;
37971;SDS011;23794;48.234;8.344;2023-03-24T09:35:29;0.70;;;0.55;;
37971;SDS011;23794;48.234;8.344;2023-03-24T09:37:56;2.10;;;0.98;;
37971;SDS011;23794;48.234;8.344;2023-03-24T09:40:24;1.23;;;0.82;;
37971;SDS011;23794;48.234;8.344;2023-03-24T09:42:54;1.27;;;0.77;;
37971;SDS011;23794;48.234;8.344;2023-03-24T09:45:33;1.25;;;0.90;;
37971;SDS011;23794;48.234;8.344;2023-03-24T09:48:07;2.50;;;0.90;;
37971;SDS011;23794;48.234;8.344;2023-03-24T09:50:42;1.10;;;0.85;;
37971;SDS011;23794;48.234;8.344;2023-03-24T09:55:46;2.47;;;1.27;;
37971;SDS011;23794;48.234;8.344;2023-03-24T09:58:15;1.60;;;1.13;;
37971;SDS011;23794;48.234;8.344;2023-03-24T10:00:43;1.33;;;1.00;;
37971;SDS011;23794;48.234;8.344;2023-03-24T10:05:53;1.30;;;0.80;;
37971;SDS011;23794;48.234;8.344;2023-03-24T10:08:34;1.95;;;0.90;;
37971;SDS011;23794;48.234;8.344;2023-03-24T10:21:36;1.75;;;0.80;;
37971;SDS011;23794;48.234;8.344;2023-03-24T10:24:18;0.95;;;0.60;;
37971;SDS011;23794;48.234;8.344;2023-03-24T10:29:36;0.80;;;0.70;;
37971;SDS011;23794;48.234;8.344;2023-03-24T10:32:20;3.30;;;0.70;;
37971;SDS011;23794;48.234;8.344;2023-03-24T10:34:57;1.33;;;0.90;;
37971;SDS011;23794;48.234;8.344;2023-03-24T10:37:32;1.20;;;0.77;;
37971;SDS011;23794;48.234;8.344;2023-03-24T10:40:00;1.50;;;0.70;;
37971;SDS011;23794;48.234;8.344;2023-03-24T10:42:28;1.52;;;0.90;;
37971;SDS011;23794;48.234;8.344;2023-03-24T10:44:58;1.17;;;0.88;;
37971;SDS011;23794;48.234;8.344;2023-03-24T10:47:25;1.40;;;0.60;;
37971;SDS011;23794;48.234;8.344;2023-03-24T10:49:59;0.68;;;0.50;;
37971;SDS011;23794;48.234;8.344;2023-03-24T10:52:40;1.03;;;0.63;;
37971;SDS011;23794;48.234;8.344;2023-03-24T10:55:19;0.47;;;0.40;;
37971;SDS011;23794;48.234;8.344;2023-03-24T10:57:49;1.38;;;0.45;;
37971;SDS011;23794;48.234;8.344;2023-03-24T11:00:22;1.40;;;0.77;;
37971;SDS011;23794;48.234;8.344;2023-03-24T11:03:03;1.00;;;0.55;;
37971;SDS011;23794;48.234;8.344;2023-03-24T11:05:35;0.82;;;0.50;;
37971;SDS011;23794;48.234;8.344;2023-03-24T11:10:43;1.50;;;0.70;;
37971;SDS011;23794;48.234;8.344;2023-03-24T11:13:26;1.10;;;0.70;;
37971;SDS011;23794;48.234;8.344;2023-03-24T11:18:20;0.70;;;0.47;;
37971;SDS011;23794;48.234;8.344;2023-03-24T11:21:03;2.17;;;0.60;;
37971;SDS011;23794;48.234;8.344;2023-03-24T11:23:41;1.02;;;0.52;;
37971;SDS011;23794;48.234;8.344;2023-03-24T11:26:15;1.02;;;0.47;;
37971;SDS011;23794;48.234;8.344;2023-03-24T11:31:22;0.75;;;0.30;;
37971;SDS011;23794;48.234;8.344;2023-03-24T11:33:57;0.63;;;0.30;;
37971;SDS011;23794;48.234;8.344;2023-03-24T11:39:11;0.73;;;0.22;;
37971;SDS011;23794;48.234;8.344;2023-03-24T11:41:41;0.88;;;0.22;;
37971;SDS011;23794;48.234;8.344;2023-03-24T11:44:21;0.57;;;0.30;;
37971;SDS011;23794;48.234;8.344;2023-03-24T11:46:53;0.75;;;0.30;;
37971;SDS011;23794;48.234;8.344;2023-03-24T11:49:29;0.75;;;0.35;;
37971;SDS011;23794;48.234;8.344;2023-03-24T11:51:57;0.75;;;0.40;;
37971;SDS011;23794;48.234;8.344;2023-03-24T11:54:27;0.85;;;0.40;;
37971;SDS011;23794;48.234;8.344;2023-03-24T11:56:58;0.57;;;0.30;;
37971;SDS011;23794;48.234;8.344;2023-03-24T11:59:58;0.68;;;0.30;;
37971;SDS011;23794;48.234;8.344;2023-03-24T12:02:50;0.70;;;0.20;;
37971;SDS011;23794;48.234;8.344;2023-03-24T12:05:30;0.90;;;0.20;;
37971;SDS011;23794;48.234;8.344;2023-03-24T12:13:46;1.25;;;0.20;;
37971;SDS011;23794;48.234;8.344;2023-03-24T12:19:36;0.43;;;0.32;;
37971;SDS011;23794;48.234;8.344;2023-03-24T12:22:15;1.08;;;0.50;;
37971;SDS011;23794;48.234;8.344;2023-03-24T12:24:55;1.02;;;0.38;;
37971;SDS011;23794;48.234;8.344;2023-03-24T12:41:41;1.88;;;0.70;;
37971;SDS011;23794;48.234;8.344;2023-03-24T12:55:10;0.85;;;0.32;;
37971;SDS011;23794;48.234;8.344;2023-03-24T12:57:45;3.72;;;0.30;;
37971;SDS011;23794;48.234;8.344;2023-03-24T13:02:56;0.45;;;0.30;;
37971;SDS011;23794;48.234;8.344;2023-03-24T13:05:28;1.73;;;0.30;;
37971;SDS011;23794;48.234;8.344;2023-03-24T13:08:02;1.35;;;0.30;;
37971;SDS011;23794;48.234;8.344;2023-03-24T13:10:36;0.32;;;0.22;;
37971;SDS011;23794;48.234;8.344;2023-03-24T13:13:23;2.23;;;0.50;;
37971;SDS011;23794;48.234;8.344;2023-03-24T13:15:57;2.90;;;0.30;;
37971;SDS011;23794;48.234;8.344;2023-03-24T13:18:31;0.63;;;0.40;;
37971;SDS011;23794;48.234;8.344;2023-03-24T13:23:41;1.63;;;0.43;;
37971;SDS011;23794;48.234;8.344;2023-03-24T13:26:17;0.65;;;0.40;;
37971;SDS011;23794;48.234;8.344;2023-03-24T13:31:30;1.02;;;0.40;;
37971;SDS011;23794;48.234;8.344;2023-03-24T13:34:19;1.30;;;0.40;;
37971;SDS011;23794;48.234;8.344;2023-03-24T13:37:15;1.23;;;0.50;;
37971;SDS011;23794;48.234;8.344;2023-03-24T13:39:47;1.00;;;0.50;;
37971;SDS011;23794;48.234;8.344;2023-03-24T13:42:43;1.40;;;0.65;;
37971;SDS011;23794;48.234;8.344;2023-03-24T13:48:03;0.45;;;0.30;;
37971;SDS011;23794;48.234;8.344;2023-03-24T13:50:38;1.30;;;0.60;;
37971;SDS011;23794;48.234;8.344;2023-03-24T13:53:18;1.17;;;0.40;;
37971;SDS011;23794;48.234;8.344;2023-03-24T13:55:58;0.73;;;0.47;;
37971;SDS011;23794;48.234;8.344;2023-03-24T13:58:43;0.90;;;0.45;;
37971;SDS011;23794;48.234;8.344;2023-03-24T14:01:18;0.95;;;0.50;;
37971;SDS011;23794;48.234;8.344;2023-03-24T14:07:24;1.05;;;0.50;;
37971;SDS011;23794;48.234;8.344;2023-03-24T14:10:09;2.47;;;0.68;;
37971;SDS011;23794;48.234;8.344;2023-03-24T14:15:26;1.13;;;0.70;;
37971;SDS011;23794;48.234;8.344;2023-03-24T14:26:03;0.52;;;0.40;;
37971;SDS011;23794;48.234;8.344;2023-03-24T14:28:37;1.70;;;1.10;;
37971;SDS011;23794;48.234;8.344;2023-03-24T14:34:05;0.70;;;0.40;;
37971;SDS011;23794;48.234;8.344;2023-03-24T14:36:44;0.93;;;0.40;;
37971;SDS011;23794;48.234;8.344;2023-03-24T14:39:34;0.63;;;0.35;;
37971;SDS011;23794;48.234;8.344;2023-03-24T14:44:53;1.05;;;0.68;;
37971;SDS011;23794;48.234;8.344;2023-03-24T14:47:22;1.20;;;0.60;;
37971;SDS011;23794;48.234;8.344;2023-03-24T14:49:55;1.27;;;0.70;;
37971;SDS011;23794;48.234;8.344;2023-03-24T14:55:09;0.95;;;0.55;;
37971;SDS011;23794;48.234;8.344;2023-03-24T15:00:14;0.52;;;0.40;;
37971;SDS011;23794;48.234;8.344;2023-03-24T15:06:16;0.93;;;0.40;;
37971;SDS011;23794;48.234;8.344;2023-03-24T15:08:49;2.58;;;1.27;;
37971;SDS011;23794;48.234;8.344;2023-03-24T15:11:19;1.65;;;0.80;;
37971;SDS011;23794;48.234;8.344;2023-03-24T15:16:28;0.80;;;0.50;;
37971;SDS011;23794;48.234;8.344;2023-03-24T15:18:58;1.55;;;0.68;;
37971;SDS011;23794;48.234;8.344;2023-03-24T15:21:33;0.93;;;0.63;;
37971;SDS011;23794;48.234;8.344;2023-03-24T15:24:22;1.25;;;0.50;;
37971;SDS011;23794;48.234;8.344;2023-03-24T15:26:52;1.00;;;0.60;;
37971;SDS011;23794;48.234;8.344;2023-03-24T15:29:33;2.22;;;0.90;;
37971;SDS011;23794;48.234;8.344;2023-03-24T15:32:05;1.17;;;0.60;;
37971;SDS011;23794;48.234;8.344;2023-03-24T15:34:52;1.50;;;0.80;;
37971;SDS011;23794;48.234;8.344;2023-03-24T15:37:34;1.98;;;0.50;;
37971;SDS011;23794;48.234;8.344;2023-03-24T15:43:01;2.70;;;0.70;;
37971;SDS011;23794;48.234;8.344;2023-03-24T15:45:48;0.98;;;0.70;;
37971;SDS011;23794;48.234;8.344;2023-03-24T15:48:38;1.40;;;0.75;;
37971;SDS011;23794;48.234;8.344;2023-03-24T15:51:06;1.20;;;0.68;;
37971;SDS011;23794;48.234;8.344;2023-03-24T15:58:44;1.08;;;0.60;;
37971;SDS011;23794;48.234;8.344;2023-03-24T16:01:34;1.83;;;0.97;;
37971;SDS011;23794;48.234;8.344;2023-03-24T16:04:04;1.70;;;0.90;;
37971;SDS011;23794;48.234;8.344;2023-03-24T16:06:36;2.75;;;0.73;;
37971;SDS011;23794;48.234;8.344;2023-03-24T16:09:12;1.23;;;0.70;;
37971;SDS011;23794;48.234;8.344;2023-03-24T16:11:41;1.30;;;0.52;;
37971;SDS011;23794;48.234;8.344;2023-03-24T16:14:29;1.20;;;0.90;;
37971;SDS011;23794;48.234;8.344;2023-03-24T16:16:57;1.70;;;0.88;;
37971;SDS011;23794;48.234;8.344;2023-03-24T16:19:25;1.52;;;0.93;;
37971;SDS011;23794;48.234;8.344;2023-03-24T16:21:52;1.55;;;0.85;;
37971;SDS011;23794;48.234;8.344;2023-03-24T16:24:20;3.25;;;1.40;;
37971;SDS011;23794;48.234;8.344;2023-03-24T16:26:48;1.05;;;0.70;;
37971;SDS011;23794;48.234;8.344;2023-03-24T16:29:16;1.17;;;0.98;;
37971;SDS011;23794;48.234;8.344;2023-03-24T16:31:45;1.92;;;1.00;;
37971;SDS011;23794;48.234;8.344;2023-03-24T16:34:15;1.52;;;0.80;;
37971;SDS011;23794;48.234;8.344;2023-03-24T16:36:44;1.20;;;0.75;;
37971;SDS011;23794;48.234;8.344;2023-03-24T16:39:24;3.22;;;0.85;;
37971;SDS011;23794;48.234;8.344;2023-03-24T16:41:53;2.10;;;1.00;;
37971;SDS011;23794;48.234;8.344;2023-03-24T16:44:22;1.58;;;0.85;;
37971;SDS011;23794;48.234;8.344;2023-03-24T16:46:50;2.65;;;0.98;;
37971;SDS011;23794;48.234;8.344;2023-03-24T16:49:19;2.55;;;1.00;;
37971;SDS011;23794;48.234;8.344;2023-03-24T16:51:47;3.30;;;1.08;;
37971;SDS011;23794;48.234;8.344;2023-03-24T16:54:15;1.98;;;0.60;;
37971;SDS011;23794;48.234;8.344;2023-03-24T16:56:42;3.25;;;1.08;;
37971;SDS011;23794;48.234;8.344;2023-03-24T16:59:09;0.98;;;0.70;;
37971;SDS011;23794;48.234;8.344;2023-03-24T17:01:41;1.83;;;1.10;;
37971;SDS011;23794;48.234;8.344;2023-03-24T17:04:13;2.22;;;1.10;;
37971;SDS011;23794;48.234;8.344;2023-03-24T17:06:43;2.05;;;0.90;;
37971;SDS011;23794;48.234;8.344;2023-03-24T17:09:15;1.15;;;0.77;;
37971;SDS011;23794;48.234;8.344;2023-03-24T17:11:47;2.47;;;1.10;;
37971;SDS011;23794;48.234;8.344;2023-03-24T17:14:17;1.58;;;0.80;;
37971;SDS011;23794;48.234;8.344;2023-03-24T17:16:47;4.50;;;0.93;;
37971;SDS011;23794;48.234;8.344;2023-03-24T17:19:23;2.47;;;1.08;;
37971;SDS011;23794;48.234;8.344;2023-03-24T17:21:54;2.45;;;0.93;;
37971;SDS011;23794;48.234;8.344;2023-03-24T17:24:27;1.63;;;0.82;;
37971;SDS011;23794;48.234;8.344;2023-03-24T17:26:55;1.58;;;0.93;;
37971;SDS011;23794;48.234;8.344;2023-03-24T17:29:23;1.58;;;0.80;;
37971;SDS011;23794;48.234;8.344;2023-03-24T17:31:51;1.52;;;0.88;;
37971;SDS011;23794;48.234;8.344;2023-03-24T17:34:19;1.38;;;0.82;;
37971;SDS011;23794;48.234;8.344;2023-03-24T17:36:48;1.35;;;1.00;;
37971;SDS011;23794;48.234;8.344;2023-03-24T17:39:18;1.88;;;0.80;;
37971;SDS011;23794;48.234;8.344;2023-03-24T17:41:47;1.27;;;0.73;;
37971;SDS011;23794;48.234;8.344;2023-03-24T17:44:14;2.70;;;1.23;;
37971;SDS011;23794;48.234;8.344;2023-03-24T17:46:42;2.17;;;0.80;;
37971;SDS011;23794;48.234;8.344;2023-03-24T17:49:10;1.42;;;0.82;;
37971;SDS011;23794;48.234;8.344;2023-03-24T17:51:38;3.00;;;0.90;;
37971;SDS011;23794;48.234;8.344;2023-03-24T17:54:05;1.67;;;0.80;;
37971;SDS011;23794;48.234;8.344;2023-03-24T17:56:33;3.40;;;0.90;;
37971;SDS011;23794;48.234;8.344;2023-03-24T17:59:00;2.10;;;1.02;;
37971;SDS011;23794;48.234;8.344;2023-03-24T18:01:29;3.63;;;1.13;;
37971;SDS011;23794;48.234;8.344;2023-03-24T18:06:27;1.92;;;1.08;;
37971;SDS011;23794;48.234;8.344;2023-03-24T18:08:57;2.83;;;0.98;;
37971;SDS011;23794;48.234;8.344;2023-03-24T18:11:25;4.30;;;0.95;;
37971;SDS011;23794;48.234;8.344;2023-03-24T18:13:54;2.40;;;1.08;;
37971;SDS011;23794;48.234;8.344;2023-03-24T18:16:21;4.03;;;1.17;;
37971;SDS011;23794;48.234;8.344;2023-03-24T18:18:50;1.00;;;0.70;;